createdAt,value
2023-01-18T00:01:32.358Z,1.47
2023-01-18T00:04:00.679Z,2.10
2023-01-18T00:06:29.048Z,2.10
2023-01-18T00:08:57.521Z,2.07
2023-01-18T00:11:28.606Z,2.10
2023-01-18T00:13:57.274Z,1.83
2023-01-18T00:16:26.875Z,2.40
2023-01-18T00:18:57.454Z,2.40
2023-01-18T00:21:27.867Z,2.73
2023-01-18T00:23:57.065Z,2.97
2023-01-18T00:26:25.242Z,2.77
2023-01-18T00:28:57.531Z,2.13
2023-01-18T00:31:26.701Z,2.23
2023-01-18T00:33:54.851Z,2.50
2023-01-18T00:36:23.857Z,3.42
2023-01-18T00:38:52.837Z,2.50
2023-01-18T00:41:22.198Z,2.23
2023-01-18T00:43:51.881Z,2.23
2023-01-18T00:46:23.637Z,2.03
2023-01-18T00:48:53.481Z,1.37
2023-01-18T00:51:24.222Z,3.27
2023-01-18T00:53:52.740Z,1.73
2023-01-18T00:56:22.777Z,2.10
2023-01-18T00:58:51.259Z,1.77
2023-01-18T01:04:05.212Z,1.42
2023-01-18T01:06:47.246Z,2.10
2023-01-18T01:09:17.345Z,2.00
2023-01-18T01:12:05.340Z,1.43
2023-01-18T01:14:55.076Z,2.17
2023-01-18T01:17:41.585Z,2.27
2023-01-18T01:20:28.835Z,2.03
2023-01-18T01:23:15.027Z,2.10
2023-01-18T01:26:02.319Z,2.77
2023-01-18T01:28:31.332Z,2.83
2023-01-18T01:31:00.675Z,2.92
2023-01-18T01:33:30.480Z,3.10
2023-01-18T01:36:00.739Z,1.93
2023-01-18T01:38:29.645Z,2.47
2023-01-18T01:41:06.051Z,1.70
2023-01-18T01:43:57.890Z,1.73
2023-01-18T01:47:00.806Z,1.73
2023-01-18T01:49:33.848Z,1.80
2023-01-18T01:52:07.800Z,1.77
2023-01-18T01:54:50.210Z,1.80
2023-01-18T01:57:22.766Z,1.80
2023-01-18T01:59:58.650Z,1.93
2023-01-18T02:02:27.039Z,1.87
2023-01-18T02:04:55.569Z,1.80
2023-01-18T02:07:26.507Z,1.77
2023-01-18T02:09:55.222Z,1.43
2023-01-18T02:12:23.590Z,1.90
2023-01-18T02:14:52.571Z,2.50
2023-01-18T02:17:38.801Z,2.00
2023-01-18T02:20:43.346Z,1.70
2023-01-18T02:23:48.703Z,1.87
2023-01-18T02:26:43.857Z,1.93
2023-01-18T02:29:18.151Z,1.90
2023-01-18T02:32:15.000Z,1.47
2023-01-18T02:34:53.681Z,1.77
2023-01-18T02:37:42.925Z,1.90
2023-01-18T02:40:13.983Z,1.70
2023-01-18T02:43:02.655Z,1.90
2023-01-18T02:46:01.749Z,1.43
2023-01-18T02:48:37.489Z,1.40
2023-01-18T02:51:05.727Z,2.63
2023-01-18T02:53:38.136Z,2.07
2023-01-18T02:56:16.139Z,2.67
2023-01-18T02:58:52.131Z,1.65
2023-01-18T03:01:38.367Z,1.60
2023-01-18T03:04:29.120Z,1.80
2023-01-18T03:07:11.075Z,1.27
2023-01-18T03:09:41.652Z,1.97
2023-01-18T03:12:17.777Z,1.73
2023-01-18T03:15:02.570Z,1.80
2023-01-18T03:17:36.249Z,2.37
2023-01-18T03:20:09.438Z,1.03
2023-01-18T03:23:15.993Z,1.90
2023-01-18T03:25:47.151Z,1.87
2023-01-18T03:28:42.224Z,1.37
2023-01-18T03:31:32.031Z,2.00
2023-01-18T03:34:21.482Z,1.40
2023-01-18T03:36:53.291Z,1.37
2023-01-18T03:39:34.871Z,1.10
2023-01-18T03:42:47.139Z,1.30
2023-01-18T03:45:27.535Z,1.53
2023-01-18T03:47:55.420Z,1.40
2023-01-18T03:50:28.443Z,1.23
2023-01-18T03:53:00.610Z,1.60
2023-01-18T03:55:44.805Z,1.40
2023-01-18T03:58:15.290Z,1.50
2023-01-18T04:00:43.057Z,1.23
2023-01-18T04:03:10.910Z,1.45
2023-01-18T04:05:38.929Z,1.52
2023-01-18T04:08:06.978Z,1.00
2023-01-18T04:13:02.305Z,1.10
2023-01-18T04:15:29.994Z,1.00
2023-01-18T04:17:57.749Z,0.90
2023-01-18T04:20:25.551Z,1.20
2023-01-18T04:22:55.672Z,0.70
2023-01-18T04:25:23.451Z,1.03
2023-01-18T04:27:51.413Z,0.70
2023-01-18T04:30:19.068Z,1.05
2023-01-18T04:32:46.746Z,1.25
2023-01-18T04:35:16.015Z,2.05
2023-01-18T04:37:43.604Z,1.10
2023-01-18T04:40:11.921Z,2.38
2023-01-18T04:42:39.652Z,1.90
2023-01-18T04:45:07.895Z,2.00
2023-01-18T04:47:35.524Z,1.53
2023-01-18T04:50:04.862Z,2.60
2023-01-18T04:52:33.402Z,2.57
2023-01-18T04:55:00.970Z,2.20
2023-01-18T04:57:28.638Z,2.33
2023-01-18T04:59:56.431Z,1.75
2023-01-18T05:02:24.102Z,2.60
2023-01-18T05:04:51.792Z,2.13
2023-01-18T05:07:19.679Z,2.03
2023-01-18T05:09:47.370Z,1.48
2023-01-18T05:12:15.197Z,1.38
2023-01-18T05:14:43.200Z,1.75
2023-01-18T05:17:10.875Z,0.98
2023-01-18T05:19:39.229Z,1.30
2023-01-18T05:22:07.323Z,1.83
2023-01-18T05:24:34.989Z,1.88
2023-01-18T05:27:02.746Z,1.85
2023-01-18T05:29:30.573Z,1.63
2023-01-18T05:31:58.373Z,1.80
2023-01-18T05:34:27.253Z,1.08
2023-01-18T05:36:56.313Z,1.23
2023-01-18T05:39:24.312Z,1.20
2023-01-18T05:41:51.775Z,1.20
2023-01-18T05:44:19.670Z,1.20
2023-01-18T05:46:47.515Z,1.15
2023-01-18T05:49:15.378Z,0.80
2023-01-18T05:51:43.390Z,1.10
2023-01-18T05:56:39.529Z,1.10
2023-01-18T05:59:07.156Z,1.42
2023-01-18T06:01:35.189Z,1.90
2023-01-18T06:06:30.795Z,1.38
2023-01-18T06:08:59.200Z,1.47
2023-01-18T06:11:27.239Z,1.57
2023-01-18T06:13:54.761Z,1.45
2023-01-18T06:16:22.485Z,0.98
2023-01-18T06:18:50.267Z,1.40
2023-01-18T06:21:18.015Z,1.15
2023-01-18T06:23:45.804Z,1.30
2023-01-18T06:26:14.128Z,2.15
2023-01-18T06:28:41.773Z,2.47
2023-01-18T06:31:10.573Z,1.92
2023-01-18T06:33:38.280Z,1.77
2023-01-18T06:36:06.506Z,2.10
2023-01-18T06:38:34.575Z,2.73
2023-01-18T06:41:02.139Z,2.97
2023-01-18T06:43:29.822Z,1.90
2023-01-18T06:45:58.522Z,2.35
2023-01-18T06:48:27.430Z,1.90
2023-01-18T06:50:58.637Z,2.10
2023-01-18T06:53:26.814Z,2.03
2023-01-18T06:55:59.607Z,2.00
2023-01-18T06:58:28.420Z,2.33
2023-01-18T07:00:57.785Z,2.93
2023-01-18T07:03:27.576Z,2.83
2023-01-18T07:05:55.961Z,2.90
2023-01-18T07:08:24.164Z,3.10
2023-01-18T07:10:52.916Z,2.47
2023-01-18T07:13:21.352Z,4.37
2023-01-18T07:16:00.874Z,3.43
2023-01-18T07:18:30.576Z,3.67
2023-01-18T07:21:02.442Z,4.53
2023-01-18T07:23:30.940Z,3.60
2023-01-18T07:26:07.145Z,4.40
2023-01-18T07:28:36.185Z,5.33
2023-01-18T07:31:05.072Z,4.73
2023-01-18T07:33:33.020Z,4.43
2023-01-18T07:38:29.284Z,3.70
2023-01-18T07:41:05.639Z,3.40
2023-01-18T07:43:33.785Z,3.00
2023-01-18T07:46:04.045Z,2.90
2023-01-18T07:48:32.447Z,2.33
2023-01-18T07:51:02.489Z,2.57
2023-01-18T07:53:31.539Z,1.30
2023-01-18T07:56:00.993Z,1.90
2023-01-18T07:58:29.175Z,2.30
2023-01-18T08:01:03.016Z,1.77
2023-01-18T08:03:30.690Z,2.03
2023-01-18T08:05:59.878Z,1.73
2023-01-18T08:08:29.076Z,2.23
2023-01-18T08:10:58.484Z,2.50
2023-01-18T08:13:27.880Z,2.67
2023-01-18T08:15:58.966Z,2.30
2023-01-18T08:18:26.826Z,1.87
2023-01-18T08:20:55.884Z,2.38
2023-01-18T08:23:23.997Z,1.97
2023-01-18T08:25:51.998Z,1.83
2023-01-18T08:28:20.002Z,1.77
2023-01-18T08:33:16.178Z,2.30
2023-01-18T08:35:48.210Z,2.13
2023-01-18T08:38:16.602Z,1.93
2023-01-18T08:40:44.279Z,2.13
2023-01-18T08:43:12.074Z,2.20
2023-01-18T08:45:39.709Z,2.13
2023-01-18T08:48:10.842Z,2.78
2023-01-18T08:50:42.995Z,2.00
2023-01-18T08:53:10.591Z,1.60
2023-01-18T08:55:38.993Z,2.00
2023-01-18T08:58:07.182Z,1.80
2023-01-18T09:00:34.957Z,2.00
2023-01-18T09:03:03.437Z,2.40
2023-01-18T09:05:33.890Z,2.40
2023-01-18T09:08:01.894Z,2.10
2023-01-18T09:10:29.739Z,1.75
2023-01-18T09:12:57.874Z,2.92
2023-01-18T09:15:27.099Z,2.30
2023-01-18T09:17:54.608Z,2.90
2023-01-18T09:20:22.439Z,2.00
2023-01-18T09:22:50.310Z,2.25
2023-01-18T09:25:18.518Z,1.55
2023-01-18T09:27:46.715Z,1.70
2023-01-18T09:30:16.262Z,1.80
2023-01-18T09:32:44.093Z,2.40
2023-01-18T09:35:11.863Z,1.50
2023-01-18T09:37:40.004Z,1.52
2023-01-18T09:45:24.781Z,2.27
2023-01-18T09:48:00.139Z,2.37
2023-01-18T09:50:28.200Z,2.50
2023-01-18T09:53:14.067Z,2.00
2023-01-18T09:55:52.370Z,1.90
2023-01-18T09:58:25.977Z,1.87
2023-01-18T10:01:01.327Z,1.67
2023-01-18T10:03:42.060Z,2.50
2023-01-18T10:06:15.840Z,2.77
2023-01-18T10:09:09.919Z,1.87
2023-01-18T10:11:56.189Z,1.90
2023-01-18T10:14:49.162Z,1.53
2023-01-18T10:17:23.162Z,2.37
2023-01-18T10:19:51.397Z,2.30
2023-01-18T10:24:59.923Z,1.97
2023-01-18T10:27:48.202Z,2.13
2023-01-18T10:30:43.482Z,2.03
2023-01-18T10:33:21.963Z,1.47
2023-01-18T10:35:54.350Z,1.43
2023-01-18T10:38:26.153Z,2.47
2023-01-18T10:40:59.857Z,2.40
2023-01-18T10:43:29.887Z,2.83
2023-01-18T10:45:58.173Z,2.60
2023-01-18T10:48:34.160Z,2.63
2023-01-18T10:51:05.916Z,1.93
2023-01-18T10:53:38.640Z,1.30
2023-01-18T10:56:26.029Z,2.43
2023-01-18T10:58:53.765Z,3.15
2023-01-18T11:01:24.483Z,2.60
2023-01-18T11:03:57.126Z,1.27
2023-01-18T11:06:25.581Z,2.40
2023-01-18T11:08:54.037Z,3.57
2023-01-18T11:11:51.454Z,2.50
2023-01-18T11:14:31.175Z,3.30
2023-01-18T11:17:11.556Z,2.77
2023-01-18T11:19:41.557Z,1.83
2023-01-18T11:22:32.970Z,1.83
2023-01-18T11:25:00.682Z,1.87
2023-01-18T11:27:28.673Z,1.85
2023-01-18T11:29:56.359Z,1.77
2023-01-18T11:32:30.523Z,1.67
2023-01-18T11:35:00.244Z,1.83
2023-01-18T11:37:40.037Z,2.27
2023-01-18T11:40:20.739Z,2.70
2023-01-18T11:42:55.215Z,2.00
2023-01-18T11:45:26.064Z,2.47
2023-01-18T11:48:10.405Z,1.60
2023-01-18T11:50:52.664Z,1.93
2023-01-18T11:53:30.976Z,2.13
2023-01-18T11:56:06.632Z,2.15
2023-01-18T11:58:36.046Z,1.90
2023-01-18T12:01:06.531Z,1.38
2023-01-18T12:03:51.034Z,2.88
2023-01-18T12:06:36.835Z,2.20
2023-01-18T12:09:10.272Z,1.50
2023-01-18T12:12:18.395Z,2.53
2023-01-18T12:15:05.547Z,1.85
2023-01-18T12:17:45.869Z,1.70
2023-01-18T12:20:27.412Z,1.55
2023-01-18T12:23:40.457Z,2.00
2023-01-18T12:26:30.702Z,2.00
2023-01-18T12:29:24.289Z,2.00
2023-01-18T12:32:33.604Z,3.47
2023-01-18T12:35:24.130Z,2.85
2023-01-18T12:38:13.485Z,2.42
2023-01-18T12:40:57.667Z,2.75
2023-01-18T12:43:46.822Z,2.38
2023-01-18T12:46:16.343Z,2.88
2023-01-18T12:48:47.093Z,1.88
2023-01-18T12:51:24.732Z,2.42
2023-01-18T12:53:58.869Z,2.45
2023-01-18T12:56:36.435Z,2.53
2023-01-18T12:59:14.463Z,2.20
2023-01-18T13:04:22.876Z,2.00
2023-01-18T13:06:53.877Z,2.53
2023-01-18T13:09:26.947Z,2.00
2023-01-18T13:11:58.546Z,2.17
2023-01-18T13:15:05.975Z,2.25
2023-01-18T13:18:12.125Z,2.15
2023-01-18T13:20:53.591Z,1.90
2023-01-18T13:23:45.812Z,1.75
2023-01-18T13:26:32.230Z,1.90
2023-01-18T13:29:07.005Z,1.70
2023-01-18T13:31:35.029Z,1.30
2023-01-18T13:34:03.599Z,2.60
2023-01-18T13:36:46.030Z,2.45
2023-01-18T13:39:19.643Z,2.45
2023-01-18T13:42:09.981Z,2.58
2023-01-18T13:44:42.889Z,2.75
2023-01-18T13:47:35.820Z,2.00
2023-01-18T13:50:05.272Z,1.42
2023-01-18T13:52:42.332Z,1.63
2023-01-18T13:55:31.969Z,1.70
2023-01-18T13:57:59.889Z,2.17
2023-01-18T14:03:07.843Z,2.17
2023-01-18T14:05:43.807Z,5.20
2023-01-18T14:08:21.345Z,4.03
2023-01-18T14:10:53.330Z,1.70
2023-01-18T14:13:49.876Z,1.92
2023-01-18T14:16:26.362Z,1.80
2023-01-18T14:19:17.273Z,2.00
2023-01-18T14:22:03.836Z,1.73
2023-01-18T14:25:02.211Z,3.00
2023-01-18T14:27:37.978Z,2.20
2023-01-18T14:30:11.543Z,2.20
2023-01-18T14:32:45.058Z,2.22
2023-01-18T14:35:25.655Z,2.00
2023-01-18T14:38:17.829Z,1.70
2023-01-18T14:40:55.931Z,2.00
2023-01-18T14:43:31.909Z,2.10
2023-01-18T14:46:04.835Z,2.90
2023-01-18T14:48:36.220Z,2.17
2023-01-18T14:51:05.350Z,2.70
2023-01-18T14:53:38.740Z,1.92
2023-01-18T14:56:17.285Z,2.20
2023-01-18T14:59:21.979Z,3.88
2023-01-18T15:01:58.342Z,1.55
2023-01-18T15:04:31.273Z,1.88
2023-01-18T15:07:10.127Z,1.55
2023-01-18T15:09:40.013Z,1.85
2023-01-18T15:12:15.602Z,2.10
2023-01-18T15:14:46.665Z,2.20
2023-01-18T15:17:25.291Z,2.20
2023-01-18T15:19:58.895Z,2.25
2023-01-18T15:22:33.219Z,3.25
2023-01-18T15:25:01.628Z,2.72
2023-01-18T15:27:32.439Z,2.40
2023-01-18T15:30:02.037Z,2.30
2023-01-18T15:32:33.289Z,2.72
2023-01-18T15:35:03.069Z,2.42
2023-01-18T15:37:37.894Z,1.52
2023-01-18T15:40:24.921Z,1.23
2023-01-18T15:43:08.227Z,1.80
2023-01-18T15:45:49.518Z,1.92
2023-01-18T15:48:22.800Z,1.73
2023-01-18T15:51:05.555Z,1.73
2023-01-18T15:53:39.049Z,1.52
2023-01-18T15:56:09.174Z,1.45
2023-01-18T15:58:40.534Z,1.00
2023-01-18T16:01:19.512Z,1.60
2023-01-18T16:03:50.505Z,1.65
2023-01-18T16:06:32.493Z,1.48
2023-01-18T16:09:13.927Z,1.55
2023-01-18T16:11:41.873Z,1.23
2023-01-18T16:14:28.555Z,1.58
2023-01-18T16:16:58.280Z,1.98
2023-01-18T16:19:34.910Z,1.40
2023-01-18T16:22:05.691Z,1.40
2023-01-18T16:24:58.532Z,1.80
2023-01-18T16:27:28.665Z,3.00
2023-01-18T16:30:17.565Z,1.55
2023-01-18T16:32:45.462Z,1.80
2023-01-18T16:35:31.461Z,1.55
2023-01-18T16:37:59.619Z,1.27
2023-01-18T16:40:28.851Z,1.80
2023-01-18T16:43:01.351Z,2.00
2023-01-18T16:45:32.768Z,2.00
2023-01-18T16:48:01.139Z,1.92
2023-01-18T16:50:29.303Z,1.83
2023-01-18T16:55:26.331Z,1.83
2023-01-18T16:57:54.309Z,2.45
2023-01-18T17:00:30.875Z,2.08
2023-01-18T17:02:59.053Z,2.38
2023-01-18T17:05:28.287Z,2.50
2023-01-18T17:07:56.054Z,2.95
2023-01-18T17:10:38.899Z,2.22
2023-01-18T17:13:06.693Z,2.75
2023-01-18T17:15:34.899Z,2.33
2023-01-18T17:18:03.741Z,1.38
2023-01-18T17:20:32.087Z,2.13
2023-01-18T17:23:01.317Z,2.00
2023-01-18T17:25:29.770Z,2.33
2023-01-18T17:27:58.149Z,2.60
2023-01-18T17:30:25.841Z,2.40
2023-01-18T17:32:53.882Z,3.67
2023-01-18T17:38:00.678Z,3.57
2023-01-18T17:40:41.725Z,2.63
2023-01-18T17:43:15.179Z,2.30
2023-01-18T17:45:59.624Z,2.27
2023-01-18T17:48:29.962Z,2.07
2023-01-18T17:50:58.770Z,2.30
2023-01-18T17:53:26.764Z,2.03
2023-01-18T17:55:54.370Z,1.42
2023-01-18T17:58:22.298Z,1.40
2023-01-18T18:03:17.588Z,1.38
2023-01-18T18:05:45.578Z,1.30
2023-01-18T18:08:13.893Z,1.45
2023-01-18T18:10:43.698Z,1.73
2023-01-18T18:13:11.386Z,1.85
2023-01-18T18:15:39.285Z,1.80
2023-01-18T18:18:12.343Z,1.98
2023-01-18T18:20:51.096Z,2.00
2023-01-18T18:23:19.091Z,1.60
2023-01-18T18:25:48.312Z,1.40
2023-01-18T18:28:15.960Z,1.47
2023-01-18T18:30:49.082Z,1.67
2023-01-18T18:33:18.608Z,1.70
2023-01-18T18:35:51.377Z,1.80
2023-01-18T18:38:22.653Z,1.80
2023-01-18T18:40:51.330Z,2.00
2023-01-18T18:43:19.259Z,1.50
2023-01-18T18:45:47.734Z,1.50
2023-01-18T18:48:15.309Z,1.60
2023-01-18T18:50:42.893Z,1.30
2023-01-18T18:53:10.812Z,1.42
2023-01-18T18:55:38.349Z,1.20
2023-01-18T18:58:06.169Z,1.55
2023-01-18T19:00:34.437Z,1.13
2023-01-18T19:03:03.450Z,1.47
2023-01-18T19:05:32.727Z,1.37
2023-01-18T19:08:01.964Z,1.43
2023-01-18T19:12:58.897Z,1.63
2023-01-18T19:15:27.065Z,1.50
2023-01-18T19:17:54.805Z,1.77
2023-01-18T19:20:22.609Z,1.83
2023-01-18T19:22:51.153Z,1.92
2023-01-18T19:25:19.061Z,1.93
2023-01-18T19:30:18.693Z,4.05
2023-01-18T19:32:48.497Z,3.13
2023-01-18T19:35:17.367Z,2.47
2023-01-18T19:37:46.215Z,2.73
2023-01-18T19:40:15.774Z,2.53
2023-01-18T19:42:44.656Z,1.60
2023-01-18T19:45:19.624Z,2.13
2023-01-18T19:47:58.022Z,2.67
2023-01-18T19:50:27.707Z,2.97
2023-01-18T19:52:56.069Z,2.40
2023-01-18T19:55:25.081Z,3.07
2023-01-18T19:57:58.236Z,3.03
2023-01-18T20:00:26.760Z,2.50
2023-01-18T20:02:54.771Z,3.40
2023-01-18T20:07:50.691Z,4.07
2023-01-18T20:10:20.538Z,3.97
2023-01-18T20:12:50.006Z,3.70
2023-01-18T20:15:19.126Z,3.20
2023-01-18T20:17:46.890Z,3.80
2023-01-18T20:20:24.330Z,2.47
2023-01-18T20:23:04.362Z,2.80
2023-01-18T20:25:33.488Z,2.63
2023-01-18T20:28:01.494Z,2.47
2023-01-18T20:32:57.975Z,2.17
2023-01-18T20:35:28.836Z,2.10
2023-01-18T20:37:57.832Z,3.80
2023-01-18T20:40:26.939Z,3.00
2023-01-18T20:42:54.790Z,1.93
2023-01-18T20:45:24.377Z,2.60
2023-01-18T20:47:53.182Z,2.53
2023-01-18T20:50:32.406Z,3.73
2023-01-18T20:53:00.574Z,4.13
2023-01-18T20:55:28.558Z,3.87
2023-01-18T20:58:00.637Z,3.03
2023-01-18T21:03:18.917Z,2.93
2023-01-18T21:05:47.946Z,2.83
2023-01-18T21:08:19.416Z,3.07
2023-01-18T21:10:47.148Z,1.83
2023-01-18T21:13:15.126Z,2.78
2023-01-18T21:18:28.604Z,3.43
2023-01-18T21:20:58.477Z,3.40
2023-01-18T21:23:26.967Z,6.33
2023-01-18T21:25:59.876Z,8.27
2023-01-18T21:28:27.537Z,4.83
2023-01-18T21:30:56.649Z,6.40
2023-01-18T21:33:28.881Z,19.03
2023-01-18T21:36:04.476Z,3.07
2023-01-18T21:38:34.703Z,16.63
2023-01-18T21:41:21.527Z,5.67
2023-01-18T21:44:12.421Z,7.72
2023-01-18T21:46:52.008Z,4.03
2023-01-18T21:50:04.044Z,3.63
2023-01-18T21:52:47.871Z,4.18
2023-01-18T21:55:16.894Z,6.53
2023-01-18T21:57:44.668Z,5.37
2023-01-18T22:00:13.061Z,5.50
2023-01-18T22:02:40.713Z,4.67
2023-01-18T22:05:09.980Z,4.57
2023-01-18T22:07:37.817Z,5.33
2023-01-18T22:10:07.166Z,4.93
2023-01-18T22:12:36.576Z,5.77
2023-01-18T22:15:05.415Z,7.13
2023-01-18T22:17:33.265Z,6.67
2023-01-18T22:20:01.843Z,6.80
2023-01-18T22:22:30.046Z,6.13
2023-01-18T22:27:28.587Z,6.67
2023-01-18T22:29:56.261Z,7.70
2023-01-18T22:32:23.977Z,6.25
2023-01-18T22:34:51.583Z,6.25
2023-01-18T22:37:19.275Z,6.38
2023-01-18T22:39:46.897Z,6.03
2023-01-18T22:42:14.726Z,9.02
2023-01-18T22:44:42.386Z,7.32
2023-01-18T22:47:10.379Z,5.25
2023-01-18T22:49:37.855Z,4.15
2023-01-18T22:52:05.687Z,5.50
2023-01-18T22:54:33.328Z,5.43
2023-01-18T22:57:01.007Z,3.92
2023-01-18T22:59:28.806Z,4.68
2023-01-18T23:01:57.081Z,5.22
2023-01-18T23:04:24.862Z,4.40
2023-01-18T23:06:54.734Z,5.47
2023-01-18T23:09:22.639Z,4.80
2023-01-18T23:11:51.803Z,4.40
2023-01-18T23:14:37.902Z,4.60
2023-01-18T23:17:24.085Z,3.73
2023-01-18T23:19:53.225Z,4.60
2023-01-18T23:22:20.818Z,3.87
2023-01-18T23:24:48.549Z,2.90
2023-01-18T23:27:16.173Z,3.00
2023-01-18T23:29:43.922Z,4.10
2023-01-18T23:32:11.844Z,5.05
2023-01-18T23:34:40.907Z,5.22
2023-01-18T23:37:08.687Z,4.40
2023-01-18T23:39:54.712Z,4.20
2023-01-18T23:42:41.104Z,4.50
2023-01-18T23:45:29.810Z,5.43
2023-01-18T23:48:16.166Z,5.07
2023-01-18T23:51:02.350Z,5.57
2023-01-18T23:53:48.561Z,6.10
2023-01-18T23:56:16.459Z,5.00
2023-01-18T23:58:44.220Z,5.53
